South Loup, Nebraska
Current Conditions -  °F | °C
As of 8:53 PM on Wednesday 26 Nov 2014 (Local Time) from KGRI Reporting Station
Clear Clear  
Wind Chill: 16°   Ceiling: Unl
Heat Index: 23°   Visibility: 10mi
Dew Point: 17°   Wind: 6mph
Humidity: 78%   Direction: 340°NNW
Pressure: 30.42"   Gusts: NA
Location:  41.0079°N, 98.6613°W
Report Text: KGRI 270253Z AUTO 34005KT 10SM CLR M05/M08 A3042 RMK AO2 SLP330 T10501083 53021 TSNO
Loading
Personal Weather Stations






























Interactive Weather Map New forecast layout! Learn more

10-Day Weather Forecast

Advertisements
Track Severe Weather on mobile